SBOSBO KLX / LGKL
Speedbird OnlineSpeedbird Online KLX / LGKL

Kalamata Airport
11:25 38°C

Location Kalamata, Greece
Latitude: 37.06829833984375
Longitude: 22.02549934387207
Local Time 11:25 on 18 Jul 2024
UTC +3 hours (Europe/Athens)
Currency £1 equals EUR 1.19
METAR LGKL 180750Z 36007KT CAVOK 38/14 Q1010
TAF TAF LGKL 180500Z 1806/1815 34007KT 9999 FEW025 BECMG 1809/1811 16010KT
Weather As Of 18 Jul 2024 11:25
Description Clear sky
Wind 19 km/h from East (71°)
Cloud Cover 0%
Precipitation Rain: none, Snow: none
Sunrise 06:26
Sunset 20:49
NOTAM 12 active NOTAM
Rotations During the last 90 days there were
22 flights from LHR
20 flights to LHR
Web Wikipedia
Codes IATA: KLX
ICAO: LGKL
Altitude 8 Meter / 26 Feet
Distance 2,353 KM / 1,462 Miles
from London.
Runways
RunwayLength (m)Surface
17R2703Asphalt
35L2703Asphalt
Radio
TypeDescriptionFrequency
A/GRDO563.7
APPAPP120.75
TWRTWR120.75
Live ATC



Support Speedbird Online

© 2017-2024 Speedbird Online